createdAt,value
2017-11-14T00:01:59.991Z,43.03
2017-11-14T00:04:27.516Z,28.43
2017-11-14T00:06:55.028Z,23.13
2017-11-14T00:09:22.695Z,29.00
2017-11-14T00:11:50.228Z,20.07
2017-11-14T00:14:17.739Z,28.63
2017-11-14T00:16:45.326Z,29.90
2017-11-14T00:19:12.857Z,20.30
2017-11-14T00:21:40.889Z,34.27
2017-11-14T00:24:08.410Z,32.80
2017-11-14T00:26:35.925Z,46.47
2017-11-14T00:29:03.503Z,29.87
2017-11-14T00:31:31.018Z,33.20
2017-11-14T00:33:58.542Z,34.23
2017-11-14T00:36:26.529Z,32.13
2017-11-14T00:38:54.046Z,25.47
2017-11-14T00:41:21.567Z,23.83
2017-11-14T00:43:49.114Z,27.57
2017-11-14T00:46:16.779Z,36.10
2017-11-14T00:48:44.317Z,36.10
2017-11-14T00:51:11.842Z,28.63
2017-11-14T00:53:39.392Z,29.43
2017-11-14T00:56:06.918Z,27.83
2017-11-14T00:58:34.463Z,28.23
2017-11-14T01:01:01.991Z,28.43
2017-11-14T01:03:29.650Z,35.60
2017-11-14T01:05:57.178Z,27.43
2017-11-14T01:08:24.704Z,33.70
2017-11-14T01:10:52.408Z,27.47
2017-11-14T01:13:19.941Z,41.20
2017-11-14T01:15:47.473Z,35.03
2017-11-14T01:18:15.380Z,27.83
2017-11-14T01:20:42.902Z,38.83
2017-11-14T01:23:10.429Z,26.97
2017-11-14T01:25:37.976Z,38.03
2017-11-14T01:28:05.494Z,27.20
2017-11-14T01:30:33.368Z,26.97
2017-11-14T01:33:00.902Z,32.63
2017-11-14T01:35:28.408Z,28.40
2017-11-14T01:37:56.059Z,31.37
2017-11-14T01:40:23.583Z,26.33
2017-11-14T01:42:51.106Z,28.27
2017-11-14T01:45:18.657Z,29.20
2017-11-14T01:47:46.202Z,27.70
2017-11-14T01:50:13.853Z,33.80
2017-11-14T01:52:41.382Z,36.00
2017-11-14T01:55:08.916Z,25.20
2017-11-14T01:57:36.575Z,23.93
2017-11-14T02:00:04.109Z,30.00
2017-11-14T02:02:31.633Z,27.13
2017-11-14T02:04:59.278Z,25.30
2017-11-14T02:07:26.825Z,22.50
2017-11-14T02:09:54.395Z,25.30
2017-11-14T02:12:22.021Z,29.33
2017-11-14T02:14:49.583Z,26.77
2017-11-14T02:17:17.098Z,28.30
2017-11-14T02:19:44.655Z,23.30
2017-11-14T02:22:12.205Z,43.17
2017-11-14T02:24:39.795Z,30.60
2017-11-14T02:27:11.083Z,26.40
2017-11-14T02:29:38.625Z,26.03
2017-11-14T02:32:06.650Z,22.47
2017-11-14T02:34:34.161Z,33.17
2017-11-14T02:37:01.711Z,20.40
2017-11-14T02:39:29.334Z,16.57
2017-11-14T02:41:56.893Z,18.20
2017-11-14T02:44:24.435Z,27.53
2017-11-14T02:46:52.020Z,18.60
2017-11-14T02:49:19.573Z,20.37
2017-11-14T02:51:47.126Z,18.13
2017-11-14T02:54:14.881Z,20.83
2017-11-14T02:56:42.393Z,12.33
2017-11-14T02:59:09.905Z,19.23
2017-11-14T03:01:37.474Z,31.47
2017-11-14T03:04:05.027Z,25.30
2017-11-14T03:06:32.543Z,22.27
2017-11-14T03:09:00.123Z,16.47
2017-11-14T03:11:27.661Z,19.00
2017-11-14T03:13:55.197Z,25.90
2017-11-14T03:16:23.183Z,26.37
2017-11-14T03:18:50.707Z,34.03
2017-11-14T03:21:18.234Z,28.97
2017-11-14T03:23:45.816Z,20.53
2017-11-14T03:26:13.344Z,25.40
2017-11-14T03:28:40.899Z,19.13
2017-11-14T03:31:08.479Z,14.50
2017-11-14T03:33:36.002Z,14.00
2017-11-14T03:36:03.582Z,12.63
2017-11-14T03:38:31.146Z,17.40
2017-11-14T03:40:58.682Z,24.70
2017-11-14T03:43:26.254Z,11.80
2017-11-14T03:45:53.777Z,19.27
2017-11-14T03:48:21.299Z,17.17
2017-11-14T03:50:48.850Z,19.60
2017-11-14T03:53:16.381Z,17.10
2017-11-14T03:55:44.030Z,23.40
2017-11-14T03:58:11.571Z,21.80
2017-11-14T04:00:39.110Z,13.40
2017-11-14T04:03:07.060Z,18.40
2017-11-14T04:05:34.590Z,21.23
2017-11-14T04:08:02.118Z,19.20
2017-11-14T04:10:30.098Z,16.83
2017-11-14T04:12:57.618Z,15.90
2017-11-14T04:15:25.129Z,28.80
2017-11-14T04:17:53.008Z,22.57
2017-11-14T04:20:20.534Z,28.17
2017-11-14T04:22:48.049Z,31.00
2017-11-14T04:25:15.700Z,20.20
2017-11-14T04:27:43.217Z,25.00
2017-11-14T04:30:10.733Z,27.20
2017-11-14T04:32:38.450Z,22.70
2017-11-14T04:35:06.015Z,20.63
2017-11-14T04:37:33.538Z,25.40
2017-11-14T04:40:01.128Z,27.37
2017-11-14T04:42:28.651Z,29.17
2017-11-14T04:44:56.186Z,18.77
2017-11-14T04:47:24.092Z,23.97
2017-11-14T04:49:51.618Z,23.87
2017-11-14T04:52:19.143Z,28.70
2017-11-14T04:54:46.789Z,26.47
2017-11-14T04:57:14.474Z,28.47
2017-11-14T04:59:42.012Z,21.97
2017-11-14T05:02:09.943Z,28.13
2017-11-14T05:04:37.470Z,22.93
2017-11-14T05:07:05.003Z,25.30
2017-11-14T05:09:32.630Z,20.97
2017-11-14T05:12:00.161Z,19.10
2017-11-14T05:14:27.678Z,24.17
2017-11-14T05:16:55.243Z,16.00
2017-11-14T05:19:22.761Z,22.47
2017-11-14T05:21:50.277Z,24.30
2017-11-14T05:24:17.838Z,16.50
2017-11-14T05:26:45.357Z,20.43
2017-11-14T05:29:12.997Z,28.13
2017-11-14T05:31:40.513Z,17.00
2017-11-14T05:34:08.034Z,19.90
2017-11-14T05:36:35.769Z,29.17
2017-11-14T05:39:03.311Z,15.77
2017-11-14T05:41:30.824Z,20.50
2017-11-14T05:43:58.587Z,22.27
2017-11-14T05:46:26.102Z,17.43
2017-11-14T05:48:54.083Z,24.73
2017-11-14T05:51:21.746Z,18.70
2017-11-14T05:53:49.840Z,19.27
2017-11-14T05:56:17.383Z,15.60
2017-11-14T05:58:45.463Z,30.03
2017-11-14T06:01:13.064Z,13.50
2017-11-14T06:03:40.916Z,14.70
2017-11-14T06:06:08.493Z,15.83
2017-11-14T06:08:36.266Z,28.83
2017-11-14T06:11:03.773Z,23.77
2017-11-14T06:13:31.298Z,15.57
2017-11-14T06:15:58.974Z,14.70
2017-11-14T06:18:26.497Z,23.47
2017-11-14T06:20:54.023Z,17.50
2017-11-14T06:23:22.051Z,16.07
2017-11-14T06:25:49.619Z,19.73
2017-11-14T06:28:17.143Z,13.70
2017-11-14T06:30:44.957Z,19.33
2017-11-14T06:33:12.480Z,16.43
2017-11-14T06:35:39.995Z,13.30
2017-11-14T06:38:08.624Z,12.57
2017-11-14T06:40:36.221Z,14.97
2017-11-14T06:43:03.775Z,17.33
2017-11-14T06:45:31.417Z,13.90
2017-11-14T06:47:58.966Z,11.03
2017-11-14T06:50:26.490Z,20.80
2017-11-14T06:52:54.025Z,14.10
2017-11-14T06:55:21.790Z,18.93
2017-11-14T06:57:49.307Z,19.23
2017-11-14T07:00:16.880Z,20.50
2017-11-14T07:02:44.422Z,18.67
2017-11-14T07:05:11.992Z,20.77
2017-11-14T07:07:39.926Z,15.43
2017-11-14T07:10:07.468Z,20.43
2017-11-14T07:12:34.997Z,18.00
2017-11-14T07:15:02.519Z,18.20
2017-11-14T07:17:30.441Z,18.80
2017-11-14T07:19:58.825Z,15.57
2017-11-14T07:22:26.380Z,22.63
2017-11-14T07:24:53.967Z,16.93
2017-11-14T07:27:21.482Z,17.10
2017-11-14T07:29:49.020Z,18.93
2017-11-14T07:32:16.582Z,22.17
2017-11-14T07:34:44.112Z,15.00
2017-11-14T07:37:11.691Z,14.70
2017-11-14T07:39:39.226Z,13.20
2017-11-14T07:42:06.745Z,12.13
2017-11-14T07:44:34.479Z,13.73
2017-11-14T07:47:02.002Z,12.90
2017-11-14T07:49:29.536Z,12.77
2017-11-14T07:51:57.085Z,18.70
2017-11-14T07:54:24.611Z,16.20
2017-11-14T07:56:52.561Z,21.33
2017-11-14T07:59:20.082Z,23.57
2017-11-14T08:01:47.775Z,20.83
2017-11-14T08:04:15.470Z,12.80
2017-11-14T08:06:43.007Z,12.20
2017-11-14T08:09:10.537Z,19.63
2017-11-14T08:11:38.501Z,17.50
2017-11-14T08:14:06.038Z,12.27
2017-11-14T08:16:33.565Z,17.67
2017-11-14T08:19:01.327Z,15.80
2017-11-14T08:21:28.847Z,20.53
2017-11-14T08:23:56.367Z,18.53
2017-11-14T08:26:23.935Z,20.13
2017-11-14T08:28:51.456Z,14.73
2017-11-14T08:31:19.008Z,13.97
2017-11-14T08:33:46.645Z,14.53
2017-11-14T08:36:14.158Z,17.27
2017-11-14T08:38:41.660Z,10.13
2017-11-14T08:41:09.250Z,16.20
2017-11-14T08:43:36.817Z,10.90
2017-11-14T08:46:04.336Z,12.17
2017-11-14T08:48:31.917Z,16.07
2017-11-14T08:50:59.913Z,12.63
2017-11-14T08:53:28.097Z,21.83
2017-11-14T08:55:55.704Z,13.23
2017-11-14T08:58:23.222Z,19.23
2017-11-14T09:00:50.749Z,19.70
2017-11-14T09:03:18.320Z,9.60
2017-11-14T09:05:45.841Z,12.67
2017-11-14T09:08:13.361Z,16.43
2017-11-14T09:10:41.022Z,18.97
2017-11-14T09:13:08.933Z,9.43
2017-11-14T09:15:37.448Z,9.07
2017-11-14T09:18:05.186Z,10.90
2017-11-14T09:20:32.721Z,10.57
2017-11-14T09:23:00.255Z,16.90
2017-11-14T09:25:27.804Z,16.40
2017-11-14T09:27:55.326Z,25.37
2017-11-14T09:30:22.890Z,10.77
2017-11-14T09:32:50.426Z,17.97
2017-11-14T09:35:18.134Z,14.27
2017-11-14T09:37:45.670Z,10.03
2017-11-14T09:40:13.212Z,15.03
2017-11-14T09:42:40.783Z,21.53
2017-11-14T09:45:08.316Z,11.23
2017-11-14T09:47:35.885Z,12.83
2017-11-14T09:50:03.664Z,11.20
2017-11-14T09:52:31.662Z,17.90
2017-11-14T09:54:59.197Z,11.43
2017-11-14T09:57:27.269Z,16.30
2017-11-14T09:59:54.992Z,19.30
2017-11-14T10:02:22.649Z,13.30
2017-11-14T10:04:50.326Z,15.33
2017-11-14T10:07:18.011Z,13.77
2017-11-14T10:09:45.550Z,18.23
2017-11-14T10:12:13.596Z,19.83
2017-11-14T10:14:41.662Z,27.53
2017-11-14T10:17:09.215Z,14.43
2017-11-14T10:19:36.741Z,18.77
2017-11-14T10:22:04.936Z,17.63
2017-11-14T10:24:32.491Z,21.93
2017-11-14T10:27:00.033Z,12.13
2017-11-14T10:29:28.364Z,13.60
2017-11-14T10:31:55.946Z,18.03
2017-11-14T10:34:23.970Z,16.23
2017-11-14T10:36:51.865Z,15.53
2017-11-14T10:39:19.425Z,13.63
2017-11-14T10:41:46.959Z,17.93
2017-11-14T10:44:14.553Z,15.37
2017-11-14T10:46:42.078Z,13.93
2017-11-14T10:49:09.628Z,14.90
2017-11-14T10:51:37.398Z,12.77
2017-11-14T10:54:04.942Z,13.13
2017-11-14T10:56:32.846Z,14.90
2017-11-14T10:59:00.526Z,18.93
2017-11-14T11:01:28.067Z,16.70
2017-11-14T11:03:56.333Z,20.07
2017-11-14T11:06:23.977Z,15.87
2017-11-14T11:08:51.519Z,12.77
2017-11-14T11:11:19.062Z,12.17
2017-11-14T11:13:46.777Z,27.70
2017-11-14T11:16:14.343Z,13.70
2017-11-14T11:18:41.882Z,18.60
2017-11-14T11:21:09.471Z,15.40
2017-11-14T11:23:37.003Z,15.33
2017-11-14T11:26:05.609Z,16.73
2017-11-14T11:28:33.549Z,14.37
2017-11-14T11:31:01.550Z,16.50
2017-11-14T11:33:30.179Z,15.93
2017-11-14T11:35:57.772Z,18.90
2017-11-14T11:38:25.298Z,16.30
2017-11-14T11:40:52.953Z,18.10
2017-11-14T11:43:20.626Z,14.63
2017-11-14T11:45:48.197Z,17.43
2017-11-14T11:48:15.743Z,18.27
2017-11-14T11:50:43.338Z,13.40
2017-11-14T11:53:10.870Z,12.97
2017-11-14T11:55:38.404Z,14.17
2017-11-14T11:58:06.388Z,18.80
2017-11-14T12:00:33.949Z,22.60
2017-11-14T12:03:02.014Z,25.80
2017-11-14T12:05:29.578Z,14.20
2017-11-14T12:07:57.113Z,16.40
2017-11-14T12:10:26.218Z,17.67
2017-11-14T12:12:53.834Z,20.93
2017-11-14T12:15:21.368Z,13.30
2017-11-14T12:17:49.109Z,21.47
2017-11-14T12:20:16.647Z,22.23
2017-11-14T12:22:45.121Z,20.10
2017-11-14T12:25:13.062Z,15.33
2017-11-14T12:27:41.041Z,18.60
2017-11-14T12:30:10.115Z,16.00
2017-11-14T12:32:38.308Z,19.20
2017-11-14T12:35:06.396Z,20.03
2017-11-14T12:37:33.935Z,22.83
2017-11-14T12:40:01.482Z,19.07
2017-11-14T12:42:29.460Z,16.37
2017-11-14T12:44:56.986Z,16.03
2017-11-14T12:47:25.646Z,19.97
2017-11-14T12:49:53.392Z,13.03
2017-11-14T12:52:20.904Z,13.10
2017-11-14T12:54:48.429Z,13.43
2017-11-14T12:57:16.430Z,11.90
2017-11-14T12:59:44.578Z,15.30
2017-11-14T13:02:12.140Z,25.60
2017-11-14T13:04:40.419Z,14.93
2017-11-14T13:07:08.363Z,17.40
2017-11-14T13:09:35.966Z,16.10
2017-11-14T13:12:03.914Z,20.50
2017-11-14T13:14:32.059Z,16.10
2017-11-14T13:16:59.641Z,16.90
2017-11-14T13:19:27.981Z,23.20
2017-11-14T13:21:55.545Z,16.80
2017-11-14T13:24:23.101Z,20.10
2017-11-14T13:26:51.429Z,15.90
2017-11-14T13:29:19.486Z,18.17
2017-11-14T13:31:47.035Z,12.77
2017-11-14T13:34:14.565Z,21.00
2017-11-14T13:36:42.102Z,16.20
2017-11-14T13:39:10.163Z,17.97
2017-11-14T13:41:37.971Z,20.67
2017-11-14T13:44:05.988Z,21.90
2017-11-14T13:46:33.597Z,21.20
2017-11-14T13:49:02.011Z,12.50
2017-11-14T13:51:29.526Z,16.50
2017-11-14T13:53:57.037Z,17.17
2017-11-14T13:56:24.942Z,19.27
2017-11-14T13:58:52.466Z,16.97
2017-11-14T14:01:20.027Z,28.23
2017-11-14T14:03:47.606Z,22.30
2017-11-14T14:06:15.131Z,21.80
2017-11-14T14:08:43.354Z,12.90
2017-11-14T14:11:11.498Z,20.87
2017-11-14T14:13:39.389Z,15.90
2017-11-14T14:16:07.308Z,21.57
2017-11-14T14:18:35.912Z,19.10
2017-11-14T14:21:03.464Z,22.73
2017-11-14T14:23:30.986Z,26.43
2017-11-14T14:25:59.595Z,30.43
2017-11-14T14:28:27.202Z,19.97
2017-11-14T14:30:54.729Z,28.37
2017-11-14T14:33:22.303Z,26.67
2017-11-14T14:35:49.821Z,37.17
2017-11-14T14:38:17.336Z,28.63
2017-11-14T14:40:45.004Z,25.77
2017-11-14T14:43:12.547Z,26.90
2017-11-14T14:45:40.083Z,28.33
2017-11-14T14:48:08.894Z,36.67
2017-11-14T14:50:36.461Z,39.87
2017-11-14T14:53:03.994Z,32.57
2017-11-14T14:55:31.573Z,37.43
2017-11-14T14:57:59.915Z,29.10
2017-11-14T15:00:27.436Z,29.93
2017-11-14T15:02:55.005Z,24.93
2017-11-14T15:05:22.533Z,45.47
2017-11-14T15:07:50.067Z,29.77
2017-11-14T15:10:18.064Z,45.47
2017-11-14T15:12:45.594Z,38.30
2017-11-14T15:15:13.214Z,44.77
2017-11-14T15:17:41.202Z,46.77
2017-11-14T15:20:08.729Z,39.20
2017-11-14T15:22:36.254Z,36.50
2017-11-14T15:25:04.746Z,55.63
2017-11-14T15:27:32.914Z,43.13
2017-11-14T15:30:01.539Z,58.47
2017-11-14T15:32:29.166Z,40.20
2017-11-14T15:34:56.689Z,45.50
2017-11-14T15:37:24.215Z,43.67
2017-11-14T15:39:51.752Z,46.53
2017-11-14T15:42:19.293Z,41.27
2017-11-14T15:44:47.185Z,43.97
2017-11-14T15:47:14.701Z,39.03
2017-11-14T15:49:42.218Z,42.67
2017-11-14T15:52:10.149Z,41.20
2017-11-14T15:54:38.410Z,59.20
2017-11-14T15:57:07.121Z,43.50
2017-11-14T15:59:34.672Z,47.67
2017-11-14T16:02:02.196Z,56.73
2017-11-14T16:04:30.110Z,59.07
2017-11-14T16:06:57.629Z,52.37
2017-11-14T16:09:25.190Z,53.37
2017-11-14T16:11:52.965Z,45.10
2017-11-14T16:14:20.485Z,55.80
2017-11-14T16:16:48.016Z,54.50
2017-11-14T16:19:15.643Z,53.07
2017-11-14T16:21:43.205Z,62.63
2017-11-14T16:24:10.739Z,55.43
2017-11-14T16:26:38.326Z,56.00
2017-11-14T16:29:05.871Z,56.27
2017-11-14T16:31:33.426Z,54.00
2017-11-14T16:34:00.955Z,69.73
2017-11-14T16:36:28.557Z,71.10
2017-11-14T16:38:56.100Z,65.80
2017-11-14T16:41:23.634Z,73.90
2017-11-14T16:43:51.681Z,70.03
2017-11-14T16:46:19.215Z,64.80
2017-11-14T16:48:46.745Z,51.27
2017-11-14T16:51:14.712Z,74.90
2017-11-14T16:53:42.251Z,67.93
2017-11-14T16:56:09.830Z,92.00
2017-11-14T16:58:37.511Z,95.17
2017-11-14T17:01:05.059Z,94.20
2017-11-14T17:03:32.594Z,74.13
2017-11-14T17:06:00.142Z,76.20
2017-11-14T17:08:27.694Z,73.00
2017-11-14T17:10:55.321Z,79.17
2017-11-14T17:13:22.987Z,62.83
2017-11-14T17:15:50.642Z,79.97
2017-11-14T17:18:18.243Z,76.63
2017-11-14T17:20:45.789Z,63.83
2017-11-14T17:23:13.328Z,75.70
2017-11-14T17:25:41.041Z,82.80
2017-11-14T17:28:08.566Z,71.33
2017-11-14T17:30:36.105Z,80.70
2017-11-14T17:33:03.875Z,90.03
2017-11-14T17:35:31.423Z,80.07
2017-11-14T17:37:58.946Z,80.13
2017-11-14T17:40:26.589Z,76.67
2017-11-14T17:42:54.579Z,105.33
2017-11-14T17:45:22.096Z,90.73
2017-11-14T17:47:49.623Z,92.53
2017-11-14T17:50:17.396Z,80.70
2017-11-14T17:52:44.913Z,87.37
2017-11-14T17:55:12.446Z,103.03
2017-11-14T17:57:40.007Z,93.17
2017-11-14T18:00:07.533Z,101.47
2017-11-14T18:02:35.100Z,86.83
2017-11-14T18:05:02.629Z,79.83
2017-11-14T18:07:30.150Z,87.80
2017-11-14T18:09:57.704Z,97.90
2017-11-14T18:12:25.290Z,96.33
2017-11-14T18:14:52.810Z,80.17
2017-11-14T18:17:20.338Z,90.37
2017-11-14T18:19:48.056Z,88.03
2017-11-14T18:22:15.578Z,75.17
2017-11-14T18:24:43.101Z,99.00
2017-11-14T18:27:10.783Z,82.90
2017-11-14T18:29:38.306Z,96.63
2017-11-14T18:32:05.845Z,90.20
2017-11-14T18:34:33.588Z,87.33
2017-11-14T18:37:01.245Z,82.13
2017-11-14T18:39:28.782Z,89.90
2017-11-14T18:41:56.537Z,82.40
2017-11-14T18:44:24.104Z,78.17
2017-11-14T18:46:51.653Z,88.30
2017-11-14T18:49:19.520Z,73.93
2017-11-14T18:51:47.037Z,69.43
2017-11-14T18:54:14.579Z,77.50
2017-11-14T18:56:42.283Z,78.97
2017-11-14T18:59:09.822Z,68.03
2017-11-14T19:01:37.350Z,84.07
2017-11-14T19:04:04.893Z,71.20
2017-11-14T19:06:32.441Z,74.53
2017-11-14T19:09:00.147Z,68.70
2017-11-14T19:11:27.675Z,78.87
2017-11-14T19:13:55.211Z,83.83
2017-11-14T19:16:23.270Z,78.00
2017-11-14T19:18:50.801Z,80.27
2017-11-14T19:21:18.389Z,74.87
2017-11-14T19:23:46.286Z,73.53
2017-11-14T19:26:13.824Z,81.47
2017-11-14T19:28:41.350Z,72.40
2017-11-14T19:31:09.109Z,81.73
2017-11-14T19:33:36.635Z,70.67
2017-11-14T19:36:04.161Z,75.13
2017-11-14T19:38:31.712Z,83.53
2017-11-14T19:40:59.236Z,74.83
2017-11-14T19:43:27.002Z,69.27
2017-11-14T19:45:54.539Z,65.90
2017-11-14T19:48:22.059Z,74.53
2017-11-14T19:50:49.642Z,64.00
2017-11-14T19:53:17.174Z,64.97
2017-11-14T19:55:44.698Z,75.53
2017-11-14T19:58:12.420Z,70.80
2017-11-14T20:00:39.942Z,70.53
2017-11-14T20:03:07.465Z,64.03
2017-11-14T20:05:35.232Z,69.13
2017-11-14T20:08:02.745Z,61.97
2017-11-14T20:10:30.273Z,72.43
2017-11-14T20:12:57.893Z,59.50
2017-11-14T20:15:25.404Z,61.33
2017-11-14T20:17:52.924Z,65.80
2017-11-14T20:20:20.532Z,63.67
2017-11-14T20:22:48.195Z,75.87
2017-11-14T20:25:15.744Z,65.47
2017-11-14T20:27:43.294Z,59.43
2017-11-14T20:30:11.272Z,58.07
2017-11-14T20:32:38.798Z,65.60
2017-11-14T20:35:06.354Z,55.17
2017-11-14T20:37:33.942Z,70.10
2017-11-14T20:40:01.460Z,61.00
2017-11-14T20:42:29.034Z,61.97
2017-11-14T20:44:56.716Z,62.87
2017-11-14T20:47:24.242Z,59.50
2017-11-14T20:49:51.760Z,59.30
2017-11-14T20:52:19.347Z,60.40
2017-11-14T20:54:46.880Z,63.13
2017-11-14T20:57:14.409Z,66.30
2017-11-14T20:59:42.073Z,83.73
2017-11-14T21:02:09.603Z,66.30
2017-11-14T21:04:37.162Z,73.53
2017-11-14T21:07:04.795Z,77.73
2017-11-14T21:09:32.328Z,77.20
2017-11-14T21:11:59.854Z,71.17
2017-11-14T21:14:27.598Z,65.80
2017-11-14T21:16:55.130Z,72.70
2017-11-14T21:19:22.640Z,74.83
2017-11-14T21:21:50.285Z,59.90
2017-11-14T21:24:17.845Z,72.80
2017-11-14T21:26:45.374Z,64.50
2017-11-14T21:29:13.447Z,62.87
2017-11-14T21:31:40.981Z,69.83
2017-11-14T21:34:08.502Z,66.17
2017-11-14T21:36:36.063Z,67.63
2017-11-14T21:39:03.690Z,72.73
2017-11-14T21:41:31.220Z,76.70
2017-11-14T21:43:58.760Z,69.57
2017-11-14T21:46:26.344Z,80.97
2017-11-14T21:48:53.931Z,89.57
2017-11-14T21:51:21.474Z,99.00
2017-11-14T21:53:49.197Z,103.23
2017-11-14T21:56:16.716Z,97.93
2017-11-14T21:58:44.237Z,90.40
2017-11-14T22:01:11.836Z,107.93
2017-11-14T22:03:39.373Z,111.70
2017-11-14T22:06:06.906Z,88.13
2017-11-14T22:08:34.513Z,103.10
2017-11-14T22:11:02.047Z,109.70
2017-11-14T22:13:29.569Z,90.70
2017-11-14T22:15:57.110Z,97.30
2017-11-14T22:18:24.644Z,100.10
2017-11-14T22:20:52.608Z,96.23
2017-11-14T22:23:20.138Z,80.80
2017-11-14T22:25:47.682Z,100.20
2017-11-14T22:28:15.260Z,101.77
2017-11-14T22:30:42.780Z,105.10
2017-11-14T22:33:10.306Z,120.23
2017-11-14T22:35:37.889Z,112.17
2017-11-14T22:38:05.419Z,98.77
2017-11-14T22:40:32.952Z,96.93
2017-11-14T22:43:00.512Z,106.67
2017-11-14T22:45:28.054Z,112.60
2017-11-14T22:47:55.924Z,91.33
2017-11-14T22:50:23.447Z,119.70
2017-11-14T22:52:51.015Z,117.90
2017-11-14T22:55:18.675Z,125.73
2017-11-14T22:57:46.203Z,107.30
2017-11-14T23:00:25.661Z,112.83
2017-11-14T23:02:53.193Z,120.20
2017-11-14T23:05:20.724Z,123.03
2017-11-14T23:07:48.333Z,137.90
2017-11-14T23:10:15.886Z,134.40
2017-11-14T23:12:44.205Z,141.90
2017-11-14T23:15:11.906Z,138.70
2017-11-14T23:17:39.461Z,125.47
2017-11-14T23:20:07.017Z,113.00
2017-11-14T23:22:34.925Z,133.43
2017-11-14T23:25:02.467Z,125.33
2017-11-14T23:27:29.997Z,132.13
2017-11-14T23:29:57.588Z,147.27
2017-11-14T23:32:25.135Z,131.20
2017-11-14T23:34:52.678Z,147.53
2017-11-14T23:37:20.756Z,148.27
2017-11-14T23:39:48.283Z,132.90
2017-11-14T23:42:15.849Z,159.73
2017-11-14T23:44:43.450Z,138.00
2017-11-14T23:47:11.004Z,148.57
2017-11-14T23:49:38.928Z,144.90
2017-11-14T23:52:06.492Z,150.43
2017-11-14T23:54:34.022Z,140.97
2017-11-14T23:57:01.614Z,136.10
2017-11-14T23:59:29.159Z,133.57
